sensor_id;sensor_type;location;lat;lon;timestamp;temperature;humidity
74458;SHT31;62896;51.032;3.712;2023-06-22T00:01:48;20.4;69
74458;SHT31;62896;51.032;3.712;2023-06-22T00:05:08;20.4;69
74458;SHT31;62896;51.032;3.712;2023-06-22T00:08:28;20.3;70
74458;SHT31;62896;51.032;3.712;2023-06-22T00:11:48;20.3;70
74458;SHT31;62896;51.032;3.712;2023-06-22T00:15:08;20.3;70
74458;SHT31;62896;51.032;3.712;2023-06-22T00:18:28;20.2;72
74458;SHT31;62896;51.032;3.712;2023-06-22T00:21:48;20.2;72
74458;SHT31;62896;51.032;3.712;2023-06-22T00:25:08;20.2;72
74458;SHT31;62896;51.032;3.712;2023-06-22T00:28:28;20;73
74458;SHT31;62896;51.032;3.712;2023-06-22T00:31:48;20;73
74458;SHT31;62896;51.032;3.712;2023-06-22T00:35:08;20;73
74458;SHT31;62896;51.032;3.712;2023-06-22T00:38:28;19.9;72
74458;SHT31;62896;51.032;3.712;2023-06-22T00:41:48;19.9;72
74458;SHT31;62896;51.032;3.712;2023-06-22T00:45:08;19.9;72
74458;SHT31;62896;51.032;3.712;2023-06-22T00:48:28;19.8;72
74458;SHT31;62896;51.032;3.712;2023-06-22T00:51:48;19.8;72
74458;SHT31;62896;51.032;3.712;2023-06-22T00:55:08;19.8;72
74458;SHT31;62896;51.032;3.712;2023-06-22T00:58:28;19.6;72
74458;SHT31;62896;51.032;3.712;2023-06-22T01:01:48;19.6;72
74458;SHT31;62896;51.032;3.712;2023-06-22T01:05:08;19.6;72
74458;SHT31;62896;51.032;3.712;2023-06-22T01:08:29;19.6;69
74458;SHT31;62896;51.032;3.712;2023-06-22T01:11:50;19.6;69
74458;SHT31;62896;51.032;3.712;2023-06-22T01:15:08;19.6;69
74458;SHT31;62896;51.032;3.712;2023-06-22T01:18:29;19.7;67
74458;SHT31;62896;51.032;3.712;2023-06-22T01:21:48;19.7;67
74458;SHT31;62896;51.032;3.712;2023-06-22T01:25:09;19.7;67
74458;SHT31;62896;51.032;3.712;2023-06-22T01:28:33;19.7;68
74458;SHT31;62896;51.032;3.712;2023-06-22T01:31:48;19.7;68
74458;SHT31;62896;51.032;3.712;2023-06-22T01:35:08;19.7;68
74458;SHT31;62896;51.032;3.712;2023-06-22T01:38:28;19.6;68
74458;SHT31;62896;51.032;3.712;2023-06-22T01:41:48;19.6;68
74458;SHT31;62896;51.032;3.712;2023-06-22T01:45:08;19.6;68
74458;SHT31;62896;51.032;3.712;2023-06-22T01:48:28;19.6;67
74458;SHT31;62896;51.032;3.712;2023-06-22T01:51:48;19.6;67
74458;SHT31;62896;51.032;3.712;2023-06-22T01:55:08;19.6;67
74458;SHT31;62896;51.032;3.712;2023-06-22T01:58:29;19.6;66
74458;SHT31;62896;51.032;3.712;2023-06-22T02:01:49;19.6;66
74458;SHT31;62896;51.032;3.712;2023-06-22T02:05:08;19.6;66
74458;SHT31;62896;51.032;3.712;2023-06-22T02:08:28;19.6;66
74458;SHT31;62896;51.032;3.712;2023-06-22T02:11:48;19.6;66
74458;SHT31;62896;51.032;3.712;2023-06-22T02:15:08;19.6;66
74458;SHT31;62896;51.032;3.712;2023-06-22T02:18:28;19.6;65
74458;SHT31;62896;51.032;3.712;2023-06-22T02:21:48;19.6;65
74458;SHT31;62896;51.032;3.712;2023-06-22T02:25:08;19.6;65
74458;SHT31;62896;51.032;3.712;2023-06-22T02:28:28;19.7;65
74458;SHT31;62896;51.032;3.712;2023-06-22T02:31:48;19.7;65
74458;SHT31;62896;51.032;3.712;2023-06-22T02:35:08;19.7;65
74458;SHT31;62896;51.032;3.712;2023-06-22T02:38:28;19.5;66
74458;SHT31;62896;51.032;3.712;2023-06-22T02:41:48;19.5;66
74458;SHT31;62896;51.032;3.712;2023-06-22T02:45:08;19.5;66
74458;SHT31;62896;51.032;3.712;2023-06-22T02:48:28;19.5;66
74458;SHT31;62896;51.032;3.712;2023-06-22T02:51:48;19.5;66
74458;SHT31;62896;51.032;3.712;2023-06-22T02:55:08;19.5;66
74458;SHT31;62896;51.032;3.712;2023-06-22T02:58:28;19.5;67
74458;SHT31;62896;51.032;3.712;2023-06-22T03:01:48;19.5;67
74458;SHT31;62896;51.032;3.712;2023-06-22T03:05:08;19.5;67
74458;SHT31;62896;51.032;3.712;2023-06-22T03:08:28;19.5;67
74458;SHT31;62896;51.032;3.712;2023-06-22T03:11:48;19.5;67
74458;SHT31;62896;51.032;3.712;2023-06-22T03:15:09;19.5;67
74458;SHT31;62896;51.032;3.712;2023-06-22T03:18:28;19.5;69
74458;SHT31;62896;51.032;3.712;2023-06-22T03:21:48;19.5;69
74458;SHT31;62896;51.032;3.712;2023-06-22T03:25:08;19.5;69
74458;SHT31;62896;51.032;3.712;2023-06-22T03:28:28;19.3;70
74458;SHT31;62896;51.032;3.712;2023-06-22T03:31:48;19.3;70
74458;SHT31;62896;51.032;3.712;2023-06-22T03:35:08;19.3;70
74458;SHT31;62896;51.032;3.712;2023-06-22T03:38:28;19.1;72
74458;SHT31;62896;51.032;3.712;2023-06-22T03:41:48;19.1;72
74458;SHT31;62896;51.032;3.712;2023-06-22T03:45:08;19.1;72
74458;SHT31;62896;51.032;3.712;2023-06-22T03:48:28;19;73
74458;SHT31;62896;51.032;3.712;2023-06-22T03:51:48;19;73
74458;SHT31;62896;51.032;3.712;2023-06-22T03:55:08;19;73
74458;SHT31;62896;51.032;3.712;2023-06-22T03:58:28;18.7;76
74458;SHT31;62896;51.032;3.712;2023-06-22T04:01:48;18.7;76
74458;SHT31;62896;51.032;3.712;2023-06-22T04:05:08;18.7;76
74458;SHT31;62896;51.032;3.712;2023-06-22T04:08:28;18.6;76
74458;SHT31;62896;51.032;3.712;2023-06-22T04:11:48;18.6;76
74458;SHT31;62896;51.032;3.712;2023-06-22T04:15:08;18.6;76
74458;SHT31;62896;51.032;3.712;2023-06-22T04:18:28;18.6;77
74458;SHT31;62896;51.032;3.712;2023-06-22T04:21:48;18.6;77
74458;SHT31;62896;51.032;3.712;2023-06-22T04:25:08;18.6;77
74458;SHT31;62896;51.032;3.712;2023-06-22T04:28:28;18.8;77
74458;SHT31;62896;51.032;3.712;2023-06-22T04:31:48;18.8;77
74458;SHT31;62896;51.032;3.712;2023-06-22T04:35:08;18.8;77
74458;SHT31;62896;51.032;3.712;2023-06-22T04:38:28;18.8;77
74458;SHT31;62896;51.032;3.712;2023-06-22T04:41:48;18.8;77
74458;SHT31;62896;51.032;3.712;2023-06-22T04:45:08;18.8;77
74458;SHT31;62896;51.032;3.712;2023-06-22T04:48:28;19;77
74458;SHT31;62896;51.032;3.712;2023-06-22T04:51:48;19;77
74458;SHT31;62896;51.032;3.712;2023-06-22T04:55:08;19;77
74458;SHT31;62896;51.032;3.712;2023-06-22T04:58:28;19.3;76
74458;SHT31;62896;51.032;3.712;2023-06-22T05:01:48;19.3;76
74458;SHT31;62896;51.032;3.712;2023-06-22T05:05:08;19.3;76
74458;SHT31;62896;51.032;3.712;2023-06-22T05:08:28;19.7;75
74458;SHT31;62896;51.032;3.712;2023-06-22T05:11:48;19.7;75
74458;SHT31;62896;51.032;3.712;2023-06-22T05:15:08;19.7;75
74458;SHT31;62896;51.032;3.712;2023-06-22T05:18:28;20.1;74
74458;SHT31;62896;51.032;3.712;2023-06-22T05:21:48;20.1;74
74458;SHT31;62896;51.032;3.712;2023-06-22T05:25:08;20.1;74
74458;SHT31;62896;51.032;3.712;2023-06-22T05:28:28;20.5;73
74458;SHT31;62896;51.032;3.712;2023-06-22T05:31:48;20.5;73
74458;SHT31;62896;51.032;3.712;2023-06-22T05:35:08;20.5;73
74458;SHT31;62896;51.032;3.712;2023-06-22T05:38:28;21.2;69
74458;SHT31;62896;51.032;3.712;2023-06-22T05:41:48;21.2;69
74458;SHT31;62896;51.032;3.712;2023-06-22T05:45:08;21.2;69
74458;SHT31;62896;51.032;3.712;2023-06-22T05:48:28;20.8;69
74458;SHT31;62896;51.032;3.712;2023-06-22T05:51:48;20.8;69
74458;SHT31;62896;51.032;3.712;2023-06-22T05:55:08;20.8;69
74458;SHT31;62896;51.032;3.712;2023-06-22T05:58:28;20.8;70
74458;SHT31;62896;51.032;3.712;2023-06-22T06:01:48;20.8;70
74458;SHT31;62896;51.032;3.712;2023-06-22T06:05:08;20.8;70
74458;SHT31;62896;51.032;3.712;2023-06-22T06:08:28;20.8;71
74458;SHT31;62896;51.032;3.712;2023-06-22T06:11:48;20.8;71
74458;SHT31;62896;51.032;3.712;2023-06-22T06:15:08;20.8;71
74458;SHT31;62896;51.032;3.712;2023-06-22T06:18:28;21;71
74458;SHT31;62896;51.032;3.712;2023-06-22T06:21:48;21;71
74458;SHT31;62896;51.032;3.712;2023-06-22T06:25:08;21;71
74458;SHT31;62896;51.032;3.712;2023-06-22T06:28:28;21.1;71
74458;SHT31;62896;51.032;3.712;2023-06-22T06:31:48;21.1;71
74458;SHT31;62896;51.032;3.712;2023-06-22T06:35:09;21.1;71
74458;SHT31;62896;51.032;3.712;2023-06-22T06:38:28;21.2;72
74458;SHT31;62896;51.032;3.712;2023-06-22T06:41:48;21.2;72
74458;SHT31;62896;51.032;3.712;2023-06-22T06:45:08;21.2;72
74458;SHT31;62896;51.032;3.712;2023-06-22T06:48:28;21.6;71
74458;SHT31;62896;51.032;3.712;2023-06-22T06:51:48;21.6;71
74458;SHT31;62896;51.032;3.712;2023-06-22T06:55:08;21.6;71
74458;SHT31;62896;51.032;3.712;2023-06-22T06:58:28;21.8;71
74458;SHT31;62896;51.032;3.712;2023-06-22T07:01:48;21.8;71
74458;SHT31;62896;51.032;3.712;2023-06-22T07:05:08;21.8;71
74458;SHT31;62896;51.032;3.712;2023-06-22T07:08:28;21.9;70
74458;SHT31;62896;51.032;3.712;2023-06-22T07:11:48;21.9;70
74458;SHT31;62896;51.032;3.712;2023-06-22T07:15:08;21.9;70
74458;SHT31;62896;51.032;3.712;2023-06-22T07:18:28;22;70
74458;SHT31;62896;51.032;3.712;2023-06-22T07:21:48;22;70
74458;SHT31;62896;51.032;3.712;2023-06-22T07:25:08;22;70
74458;SHT31;62896;51.032;3.712;2023-06-22T07:28:28;22.1;70
74458;SHT31;62896;51.032;3.712;2023-06-22T07:31:49;22.1;70
74458;SHT31;62896;51.032;3.712;2023-06-22T07:35:08;22.1;70
74458;SHT31;62896;51.032;3.712;2023-06-22T07:38:28;22.3;69
74458;SHT31;62896;51.032;3.712;2023-06-22T07:41:48;22.3;69
74458;SHT31;62896;51.032;3.712;2023-06-22T07:45:08;22.3;69
74458;SHT31;62896;51.032;3.712;2023-06-22T07:48:28;22.4;68
74458;SHT31;62896;51.032;3.712;2023-06-22T07:51:48;22.4;68
74458;SHT31;62896;51.032;3.712;2023-06-22T07:55:08;22.4;68
74458;SHT31;62896;51.032;3.712;2023-06-22T07:58:28;22.7;67
74458;SHT31;62896;51.032;3.712;2023-06-22T08:01:48;22.7;67
74458;SHT31;62896;51.032;3.712;2023-06-22T08:05:08;22.7;67
74458;SHT31;62896;51.032;3.712;2023-06-22T08:08:28;22.7;66
74458;SHT31;62896;51.032;3.712;2023-06-22T08:11:48;22.7;66
74458;SHT31;62896;51.032;3.712;2023-06-22T08:15:08;22.7;66
74458;SHT31;62896;51.032;3.712;2023-06-22T08:18:28;22.9;65
74458;SHT31;62896;51.032;3.712;2023-06-22T08:21:48;22.9;65
74458;SHT31;62896;51.032;3.712;2023-06-22T08:25:08;22.9;65
74458;SHT31;62896;51.032;3.712;2023-06-22T08:28:28;23.1;63
74458;SHT31;62896;51.032;3.712;2023-06-22T08:31:48;23.1;63
74458;SHT31;62896;51.032;3.712;2023-06-22T08:35:08;23.1;63
74458;SHT31;62896;51.032;3.712;2023-06-22T08:38:28;23.2;62
74458;SHT31;62896;51.032;3.712;2023-06-22T08:41:48;23.2;62
74458;SHT31;62896;51.032;3.712;2023-06-22T08:45:08;23.2;62
74458;SHT31;62896;51.032;3.712;2023-06-22T08:48:28;23.2;63
74458;SHT31;62896;51.032;3.712;2023-06-22T08:51:48;23.2;63
74458;SHT31;62896;51.032;3.712;2023-06-22T08:55:08;23.2;63
74458;SHT31;62896;51.032;3.712;2023-06-22T08:58:28;23.1;64
74458;SHT31;62896;51.032;3.712;2023-06-22T09:01:48;23.1;64
74458;SHT31;62896;51.032;3.712;2023-06-22T09:05:08;23.1;64
74458;SHT31;62896;51.032;3.712;2023-06-22T09:08:28;22.9;66
74458;SHT31;62896;51.032;3.712;2023-06-22T09:11:48;22.9;66
74458;SHT31;62896;51.032;3.712;2023-06-22T09:15:08;22.9;66
74458;SHT31;62896;51.032;3.712;2023-06-22T09:18:28;22.8;66
74458;SHT31;62896;51.032;3.712;2023-06-22T09:21:48;22.8;66
74458;SHT31;62896;51.032;3.712;2023-06-22T09:25:08;22.8;66
74458;SHT31;62896;51.032;3.712;2023-06-22T09:28:28;22.5;66
74458;SHT31;62896;51.032;3.712;2023-06-22T09:31:48;22.5;66
74458;SHT31;62896;51.032;3.712;2023-06-22T09:35:08;22.5;66
74458;SHT31;62896;51.032;3.712;2023-06-22T09:38:28;22.4;66
74458;SHT31;62896;51.032;3.712;2023-06-22T09:41:48;22.4;66
74458;SHT31;62896;51.032;3.712;2023-06-22T09:45:08;22.4;66
74458;SHT31;62896;51.032;3.712;2023-06-22T09:48:28;22.3;68
74458;SHT31;62896;51.032;3.712;2023-06-22T09:51:48;22.3;68
74458;SHT31;62896;51.032;3.712;2023-06-22T09:55:08;22.3;68
74458;SHT31;62896;51.032;3.712;2023-06-22T09:58:28;21.9;72
74458;SHT31;62896;51.032;3.712;2023-06-22T10:01:48;21.9;72
74458;SHT31;62896;51.032;3.712;2023-06-22T10:05:08;21.9;72
74458;SHT31;62896;51.032;3.712;2023-06-22T10:08:28;21.6;75
74458;SHT31;62896;51.032;3.712;2023-06-22T10:11:48;21.6;75
74458;SHT31;62896;51.032;3.712;2023-06-22T10:15:08;21.6;75
74458;SHT31;62896;51.032;3.712;2023-06-22T10:18:28;21.5;76
74458;SHT31;62896;51.032;3.712;2023-06-22T10:21:48;21.5;76
74458;SHT31;62896;51.032;3.712;2023-06-22T10:25:08;21.5;76
74458;SHT31;62896;51.032;3.712;2023-06-22T10:28:28;21.3;76
74458;SHT31;62896;51.032;3.712;2023-06-22T10:31:48;21.3;76
74458;SHT31;62896;51.032;3.712;2023-06-22T10:35:08;21.3;76
74458;SHT31;62896;51.032;3.712;2023-06-22T10:38:28;21.1;76
74458;SHT31;62896;51.032;3.712;2023-06-22T10:41:48;21.1;76
74458;SHT31;62896;51.032;3.712;2023-06-22T10:45:08;21.1;76
74458;SHT31;62896;51.032;3.712;2023-06-22T10:48:28;21;77
74458;SHT31;62896;51.032;3.712;2023-06-22T10:51:48;21;77
74458;SHT31;62896;51.032;3.712;2023-06-22T10:55:08;21;77
74458;SHT31;62896;51.032;3.712;2023-06-22T10:58:28;21;78
74458;SHT31;62896;51.032;3.712;2023-06-22T11:01:48;21;78
74458;SHT31;62896;51.032;3.712;2023-06-22T11:05:08;21;78
74458;SHT31;62896;51.032;3.712;2023-06-22T11:08:28;20.9;78
74458;SHT31;62896;51.032;3.712;2023-06-22T11:11:48;20.9;78
74458;SHT31;62896;51.032;3.712;2023-06-22T11:15:08;20.9;78
74458;SHT31;62896;51.032;3.712;2023-06-22T11:18:28;20.9;79
74458;SHT31;62896;51.032;3.712;2023-06-22T11:21:48;20.9;79
74458;SHT31;62896;51.032;3.712;2023-06-22T11:25:08;20.9;79
74458;SHT31;62896;51.032;3.712;2023-06-22T11:28:28;20.7;80
74458;SHT31;62896;51.032;3.712;2023-06-22T11:31:48;20.7;80
74458;SHT31;62896;51.032;3.712;2023-06-22T11:35:08;20.7;80
74458;SHT31;62896;51.032;3.712;2023-06-22T11:38:28;20.6;79
74458;SHT31;62896;51.032;3.712;2023-06-22T11:41:48;20.6;79
74458;SHT31;62896;51.032;3.712;2023-06-22T11:45:08;20.6;79
74458;SHT31;62896;51.032;3.712;2023-06-22T11:48:28;20.4;76
74458;SHT31;62896;51.032;3.712;2023-06-22T11:51:48;20.4;76
74458;SHT31;62896;51.032;3.712;2023-06-22T11:55:08;20.4;76
74458;SHT31;62896;51.032;3.712;2023-06-22T11:58:28;20.4;74
74458;SHT31;62896;51.032;3.712;2023-06-22T12:01:48;20.4;74
74458;SHT31;62896;51.032;3.712;2023-06-22T12:05:08;20.4;74
74458;SHT31;62896;51.032;3.712;2023-06-22T12:08:28;20.5;73
74458;SHT31;62896;51.032;3.712;2023-06-22T12:11:48;20.5;73
74458;SHT31;62896;51.032;3.712;2023-06-22T12:15:09;20.5;73
74458;SHT31;62896;51.032;3.712;2023-06-22T12:18:28;20.5;75
74458;SHT31;62896;51.032;3.712;2023-06-22T12:21:48;20.5;75
74458;SHT31;62896;51.032;3.712;2023-06-22T12:25:08;20.5;75
74458;SHT31;62896;51.032;3.712;2023-06-22T12:28:28;20.7;76
74458;SHT31;62896;51.032;3.712;2023-06-22T12:31:48;20.7;76
74458;SHT31;62896;51.032;3.712;2023-06-22T12:35:08;20.7;76
74458;SHT31;62896;51.032;3.712;2023-06-22T12:38:28;20.7;76
74458;SHT31;62896;51.032;3.712;2023-06-22T12:41:48;20.7;76
74458;SHT31;62896;51.032;3.712;2023-06-22T12:45:08;20.7;76
74458;SHT31;62896;51.032;3.712;2023-06-22T12:48:28;20.4;77
74458;SHT31;62896;51.032;3.712;2023-06-22T12:51:48;20.4;77
74458;SHT31;62896;51.032;3.712;2023-06-22T12:55:08;20.4;77
74458;SHT31;62896;51.032;3.712;2023-06-22T12:58:28;20.3;79
74458;SHT31;62896;51.032;3.712;2023-06-22T13:01:48;20.3;79
74458;SHT31;62896;51.032;3.712;2023-06-22T13:05:08;20.3;79
74458;SHT31;62896;51.032;3.712;2023-06-22T13:08:28;20.4;79
74458;SHT31;62896;51.032;3.712;2023-06-22T13:11:48;20.4;79
74458;SHT31;62896;51.032;3.712;2023-06-22T13:15:08;20.4;79
74458;SHT31;62896;51.032;3.712;2023-06-22T13:18:28;20.7;78
74458;SHT31;62896;51.032;3.712;2023-06-22T13:21:48;20.7;78
74458;SHT31;62896;51.032;3.712;2023-06-22T13:25:08;20.7;78
74458;SHT31;62896;51.032;3.712;2023-06-22T13:28:28;20.9;78
74458;SHT31;62896;51.032;3.712;2023-06-22T13:31:48;20.9;78
74458;SHT31;62896;51.032;3.712;2023-06-22T13:35:08;20.9;78
74458;SHT31;62896;51.032;3.712;2023-06-22T13:38:28;21.4;78
74458;SHT31;62896;51.032;3.712;2023-06-22T13:41:48;21.4;78
74458;SHT31;62896;51.032;3.712;2023-06-22T13:45:08;21.4;78
74458;SHT31;62896;51.032;3.712;2023-06-22T13:48:28;21.7;75
74458;SHT31;62896;51.032;3.712;2023-06-22T13:51:48;21.7;75
74458;SHT31;62896;51.032;3.712;2023-06-22T13:55:08;21.7;75
74458;SHT31;62896;51.032;3.712;2023-06-22T13:58:28;22.1;75
74458;SHT31;62896;51.032;3.712;2023-06-22T14:01:48;22.1;75
74458;SHT31;62896;51.032;3.712;2023-06-22T14:05:08;22.1;75
74458;SHT31;62896;51.032;3.712;2023-06-22T14:08:28;22.4;75
74458;SHT31;62896;51.032;3.712;2023-06-22T14:11:48;22.4;75
74458;SHT31;62896;51.032;3.712;2023-06-22T14:15:08;22.4;75
74458;SHT31;62896;51.032;3.712;2023-06-22T14:18:28;22.4;75
74458;SHT31;62896;51.032;3.712;2023-06-22T14:21:48;22.4;75
74458;SHT31;62896;51.032;3.712;2023-06-22T14:25:08;22.4;75
74458;SHT31;62896;51.032;3.712;2023-06-22T14:28:28;22.4;76
74458;SHT31;62896;51.032;3.712;2023-06-22T14:31:48;22.4;76
74458;SHT31;62896;51.032;3.712;2023-06-22T14:35:08;22.4;76
74458;SHT31;62896;51.032;3.712;2023-06-22T14:38:28;22.8;75
74458;SHT31;62896;51.032;3.712;2023-06-22T14:41:48;22.8;75
74458;SHT31;62896;51.032;3.712;2023-06-22T14:45:08;22.8;75
74458;SHT31;62896;51.032;3.712;2023-06-22T14:48:28;23.2;75
74458;SHT31;62896;51.032;3.712;2023-06-22T14:51:48;23.2;75
74458;SHT31;62896;51.032;3.712;2023-06-22T14:55:08;23.2;75
74458;SHT31;62896;51.032;3.712;2023-06-22T14:58:28;23;75
74458;SHT31;62896;51.032;3.712;2023-06-22T15:01:48;23;75
74458;SHT31;62896;51.032;3.712;2023-06-22T15:05:08;23;75
74458;SHT31;62896;51.032;3.712;2023-06-22T15:08:28;22.9;74
74458;SHT31;62896;51.032;3.712;2023-06-22T15:11:48;22.9;74
74458;SHT31;62896;51.032;3.712;2023-06-22T15:15:09;22.9;74
74458;SHT31;62896;51.032;3.712;2023-06-22T15:18:28;23.1;74
74458;SHT31;62896;51.032;3.712;2023-06-22T15:21:48;23.1;74
74458;SHT31;62896;51.032;3.712;2023-06-22T15:25:08;23.1;74
74458;SHT31;62896;51.032;3.712;2023-06-22T15:28:28;23.6;73
74458;SHT31;62896;51.032;3.712;2023-06-22T15:31:48;23.6;73
74458;SHT31;62896;51.032;3.712;2023-06-22T15:35:08;23.6;73
74458;SHT31;62896;51.032;3.712;2023-06-22T15:38:29;23.7;72
74458;SHT31;62896;51.032;3.712;2023-06-22T15:41:48;23.7;72
74458;SHT31;62896;51.032;3.712;2023-06-22T15:45:08;23.7;72
74458;SHT31;62896;51.032;3.712;2023-06-22T15:48:28;23.4;72
74458;SHT31;62896;51.032;3.712;2023-06-22T15:51:48;23.4;72
74458;SHT31;62896;51.032;3.712;2023-06-22T15:55:08;23.4;72
74458;SHT31;62896;51.032;3.712;2023-06-22T15:58:28;23;72
74458;SHT31;62896;51.032;3.712;2023-06-22T16:01:48;23;72
74458;SHT31;62896;51.032;3.712;2023-06-22T16:05:08;23;72
74458;SHT31;62896;51.032;3.712;2023-06-22T16:08:28;22.6;74
74458;SHT31;62896;51.032;3.712;2023-06-22T16:11:48;22.6;74
74458;SHT31;62896;51.032;3.712;2023-06-22T16:15:08;22.6;74
74458;SHT31;62896;51.032;3.712;2023-06-22T16:18:28;22.4;77
74458;SHT31;62896;51.032;3.712;2023-06-22T16:21:48;22.4;77
74458;SHT31;62896;51.032;3.712;2023-06-22T16:25:08;22.4;77
74458;SHT31;62896;51.032;3.712;2023-06-22T16:28:28;22.3;78
74458;SHT31;62896;51.032;3.712;2023-06-22T16:31:48;22.3;78
74458;SHT31;62896;51.032;3.712;2023-06-22T16:35:08;22.3;78
74458;SHT31;62896;51.032;3.712;2023-06-22T16:38:28;22.2;79
74458;SHT31;62896;51.032;3.712;2023-06-22T16:41:48;22.2;79
74458;SHT31;62896;51.032;3.712;2023-06-22T16:45:09;22.2;79
74458;SHT31;62896;51.032;3.712;2023-06-22T16:48:28;22.1;79
74458;SHT31;62896;51.032;3.712;2023-06-22T16:51:48;22.1;79
74458;SHT31;62896;51.032;3.712;2023-06-22T16:55:09;22.1;79
74458;SHT31;62896;51.032;3.712;2023-06-22T16:58:28;22;79
74458;SHT31;62896;51.032;3.712;2023-06-22T17:01:49;22;79
74458;SHT31;62896;51.032;3.712;2023-06-22T17:05:08;22;79
74458;SHT31;62896;51.032;3.712;2023-06-22T17:08:29;21.9;79
74458;SHT31;62896;51.032;3.712;2023-06-22T17:11:50;21.9;79
74458;SHT31;62896;51.032;3.712;2023-06-22T17:15:09;21.9;79
74458;SHT31;62896;51.032;3.712;2023-06-22T17:18:28;21.8;80
74458;SHT31;62896;51.032;3.712;2023-06-22T17:21:48;21.8;80
74458;SHT31;62896;51.032;3.712;2023-06-22T17:25:09;21.8;80
74458;SHT31;62896;51.032;3.712;2023-06-22T17:28:45;21.8;80
74458;SHT31;62896;51.032;3.712;2023-06-22T17:31:48;21.8;80
74458;SHT31;62896;51.032;3.712;2023-06-22T17:35:09;21.8;80
74458;SHT31;62896;51.032;3.712;2023-06-22T17:38:28;21.8;79
74458;SHT31;62896;51.032;3.712;2023-06-22T17:41:49;21.8;79
74458;SHT31;62896;51.032;3.712;2023-06-22T17:45:14;21.8;79
74458;SHT31;62896;51.032;3.712;2023-06-22T17:48:29;21.6;79
74458;SHT31;62896;51.032;3.712;2023-06-22T17:51:49;21.6;79
74458;SHT31;62896;51.032;3.712;2023-06-22T17:55:08;21.6;79
74458;SHT31;62896;51.032;3.712;2023-06-22T17:58:28;21.5;80
74458;SHT31;62896;51.032;3.712;2023-06-22T18:01:48;21.5;80
74458;SHT31;62896;51.032;3.712;2023-06-22T18:05:09;21.5;80
74458;SHT31;62896;51.032;3.712;2023-06-22T18:08:28;21.5;80
74458;SHT31;62896;51.032;3.712;2023-06-22T18:11:49;21.5;80
74458;SHT31;62896;51.032;3.712;2023-06-22T18:15:08;21.5;80
74458;SHT31;62896;51.032;3.712;2023-06-22T18:18:28;21.4;80
74458;SHT31;62896;51.032;3.712;2023-06-22T18:21:48;21.4;80
74458;SHT31;62896;51.032;3.712;2023-06-22T18:25:09;21.4;80
74458;SHT31;62896;51.032;3.712;2023-06-22T18:28:28;21.3;80
74458;SHT31;62896;51.032;3.712;2023-06-22T18:31:48;21.3;80
74458;SHT31;62896;51.032;3.712;2023-06-22T18:35:08;21.3;80
74458;SHT31;62896;51.032;3.712;2023-06-22T18:38:28;21.2;80
74458;SHT31;62896;51.032;3.712;2023-06-22T18:41:50;21.2;80
74458;SHT31;62896;51.032;3.712;2023-06-22T18:45:21;21.2;80
74458;SHT31;62896;51.032;3.712;2023-06-22T18:48:28;21.1;80
74458;SHT31;62896;51.032;3.712;2023-06-22T18:51:49;21.1;80
74458;SHT31;62896;51.032;3.712;2023-06-22T18:55:11;21.1;80
74458;SHT31;62896;51.032;3.712;2023-06-22T18:58:28;20.9;80
74458;SHT31;62896;51.032;3.712;2023-06-22T19:01:48;20.9;80
74458;SHT31;62896;51.032;3.712;2023-06-22T19:05:09;20.9;80
74458;SHT31;62896;51.032;3.712;2023-06-22T19:08:36;20.5;82
74458;SHT31;62896;51.032;3.712;2023-06-22T19:11:48;20.5;82
74458;SHT31;62896;51.032;3.712;2023-06-22T19:15:09;20.5;82
74458;SHT31;62896;51.032;3.712;2023-06-22T19:18:31;20.3;83
74458;SHT31;62896;51.032;3.712;2023-06-22T19:21:57;20.3;83
74458;SHT31;62896;51.032;3.712;2023-06-22T19:25:16;20.3;83
74458;SHT31;62896;51.032;3.712;2023-06-22T19:28:29;20.2;84
74458;SHT31;62896;51.032;3.712;2023-06-22T19:31:48;20.2;84
74458;SHT31;62896;51.032;3.712;2023-06-22T19:35:08;20.2;84
74458;SHT31;62896;51.032;3.712;2023-06-22T19:38:28;19.9;85
74458;SHT31;62896;51.032;3.712;2023-06-22T19:41:48;19.9;85
74458;SHT31;62896;51.032;3.712;2023-06-22T19:45:09;19.9;85
74458;SHT31;62896;51.032;3.712;2023-06-22T19:48:29;19.8;85
74458;SHT31;62896;51.032;3.712;2023-06-22T19:51:48;19.8;85
74458;SHT31;62896;51.032;3.712;2023-06-22T19:55:09;19.8;85
74458;SHT31;62896;51.032;3.712;2023-06-22T19:58:30;19.7;85
74458;SHT31;62896;51.032;3.712;2023-06-22T20:01:48;19.7;85
74458;SHT31;62896;51.032;3.712;2023-06-22T20:05:09;19.7;85
74458;SHT31;62896;51.032;3.712;2023-06-22T20:08:29;19.4;86
74458;SHT31;62896;51.032;3.712;2023-06-22T20:11:55;19.4;86
74458;SHT31;62896;51.032;3.712;2023-06-22T20:15:25;19.4;86
74458;SHT31;62896;51.032;3.712;2023-06-22T20:18:28;19.3;86
74458;SHT31;62896;51.032;3.712;2023-06-22T20:21:49;19.3;86
74458;SHT31;62896;51.032;3.712;2023-06-22T20:25:08;19.3;86
74458;SHT31;62896;51.032;3.712;2023-06-22T20:28:28;19;86
74458;SHT31;62896;51.032;3.712;2023-06-22T20:31:48;19;86
74458;SHT31;62896;51.032;3.712;2023-06-22T20:35:08;19;86
74458;SHT31;62896;51.032;3.712;2023-06-22T20:38:29;18.8;87
74458;SHT31;62896;51.032;3.712;2023-06-22T20:41:48;18.8;87
74458;SHT31;62896;51.032;3.712;2023-06-22T20:45:09;18.8;87
74458;SHT31;62896;51.032;3.712;2023-06-22T20:48:28;18.7;87
74458;SHT31;62896;51.032;3.712;2023-06-22T20:51:49;18.7;87
74458;SHT31;62896;51.032;3.712;2023-06-22T20:55:09;18.7;87
74458;SHT31;62896;51.032;3.712;2023-06-22T20:58:29;18.5;87
74458;SHT31;62896;51.032;3.712;2023-06-22T21:01:48;18.5;87
74458;SHT31;62896;51.032;3.712;2023-06-22T21:05:09;18.5;87
74458;SHT31;62896;51.032;3.712;2023-06-22T21:08:28;18.4;87
74458;SHT31;62896;51.032;3.712;2023-06-22T21:11:49;18.4;87
74458;SHT31;62896;51.032;3.712;2023-06-22T21:15:09;18.4;87
74458;SHT31;62896;51.032;3.712;2023-06-22T21:18:28;18.2;87
74458;SHT31;62896;51.032;3.712;2023-06-22T21:21:48;18.2;87
74458;SHT31;62896;51.032;3.712;2023-06-22T21:25:09;18.2;87
74458;SHT31;62896;51.032;3.712;2023-06-22T21:28:29;18.2;87
74458;SHT31;62896;51.032;3.712;2023-06-22T21:31:48;18.2;87
74458;SHT31;62896;51.032;3.712;2023-06-22T21:35:09;18.2;87
74458;SHT31;62896;51.032;3.712;2023-06-22T21:38:29;18;87
74458;SHT31;62896;51.032;3.712;2023-06-22T21:41:49;18;87
74458;SHT31;62896;51.032;3.712;2023-06-22T21:45:09;18;87
74458;SHT31;62896;51.032;3.712;2023-06-22T21:48:29;17.9;87
74458;SHT31;62896;51.032;3.712;2023-06-22T21:51:49;17.9;87
74458;SHT31;62896;51.032;3.712;2023-06-22T21:55:09;17.9;87
74458;SHT31;62896;51.032;3.712;2023-06-22T21:58:29;17.8;87
74458;SHT31;62896;51.032;3.712;2023-06-22T22:01:49;17.8;87
74458;SHT31;62896;51.032;3.712;2023-06-22T22:05:09;17.8;87
74458;SHT31;62896;51.032;3.712;2023-06-22T22:08:29;17.7;87
74458;SHT31;62896;51.032;3.712;2023-06-22T22:11:49;17.7;87
74458;SHT31;62896;51.032;3.712;2023-06-22T22:15:09;17.7;87
74458;SHT31;62896;51.032;3.712;2023-06-22T22:18:29;17.5;87
74458;SHT31;62896;51.032;3.712;2023-06-22T22:21:49;17.5;87
74458;SHT31;62896;51.032;3.712;2023-06-22T22:25:09;17.5;87
74458;SHT31;62896;51.032;3.712;2023-06-22T22:28:29;17.4;87
74458;SHT31;62896;51.032;3.712;2023-06-22T22:31:49;17.4;87